Terminal Aerodrome Forecast
Issued by NWS Wichita, KS

Home | Current Version | Previous Version | Text Only | Print | Product List | Glossary On
Versions: 1 2 3 4 5 6 7 8 9 10 11 12 13 14 15
000
FTUS43 KICT 270540
TAFICT
TAF
KICT 270540Z 2706/2806 31012KT P6SM OVC015
     FM270900 32010KT P6SM BKN025
     FM271100 32010KT P6SM SCT025 BKN070
     FM271500 33010KT P6SM FEW070
     FM280000 VRB05KT P6SM SKC=

USA.gov is the U.S. government's official web portal to all federal, state and local government web resources and services.